sensor_id;sensor_type;location;lat;lon;timestamp;P1;durP1;ratioP1;P2;durP2;ratioP2
5811;SDS011;2932;52.400;9.558;2022-07-10T00:01:24;4.70;;;1.07;;
5811;SDS011;2932;52.400;9.558;2022-07-10T00:03:49;1.97;;;0.73;;
5811;SDS011;2932;52.400;9.558;2022-07-10T00:06:15;6.13;;;1.00;;
5811;SDS011;2932;52.400;9.558;2022-07-10T00:08:41;3.73;;;1.27;;
5811;SDS011;2932;52.400;9.558;2022-07-10T00:11:07;2.30;;;0.60;;
5811;SDS011;2932;52.400;9.558;2022-07-10T00:13:34;5.70;;;0.90;;
5811;SDS011;2932;52.400;9.558;2022-07-10T00:16:00;5.67;;;1.10;;
5811;SDS011;2932;52.400;9.558;2022-07-10T00:18:27;3.27;;;1.00;;
5811;SDS011;2932;52.400;9.558;2022-07-10T00:20:53;4.10;;;0.70;;
5811;SDS011;2932;52.400;9.558;2022-07-10T00:23:18;3.80;;;0.73;;
5811;SDS011;2932;52.400;9.558;2022-07-10T00:25:44;5.10;;;0.97;;
5811;SDS011;2932;52.400;9.558;2022-07-10T00:28:09;5.87;;;1.60;;
5811;SDS011;2932;52.400;9.558;2022-07-10T00:30:36;4.30;;;0.90;;
5811;SDS011;2932;52.400;9.558;2022-07-10T00:33:02;3.77;;;1.00;;
5811;SDS011;2932;52.400;9.558;2022-07-10T00:35:27;5.00;;;1.03;;
5811;SDS011;2932;52.400;9.558;2022-07-10T00:37:53;4.17;;;1.20;;
5811;SDS011;2932;52.400;9.558;2022-07-10T00:40:18;5.83;;;1.93;;
5811;SDS011;2932;52.400;9.558;2022-07-10T00:42:45;3.50;;;0.80;;
5811;SDS011;2932;52.400;9.558;2022-07-10T00:45:10;4.33;;;1.43;;
5811;SDS011;2932;52.400;9.558;2022-07-10T00:47:36;5.57;;;1.07;;
5811;SDS011;2932;52.400;9.558;2022-07-10T00:50:01;5.53;;;1.00;;
5811;SDS011;2932;52.400;9.558;2022-07-10T00:52:27;5.77;;;1.00;;
5811;SDS011;2932;52.400;9.558;2022-07-10T00:54:53;5.67;;;1.00;;
5811;SDS011;2932;52.400;9.558;2022-07-10T00:57:18;5.27;;;0.70;;
5811;SDS011;2932;52.400;9.558;2022-07-10T00:59:45;4.33;;;0.60;;
5811;SDS011;2932;52.400;9.558;2022-07-10T01:02:13;5.67;;;1.00;;
5811;SDS011;2932;52.400;9.558;2022-07-10T01:04:39;3.60;;;0.70;;
5811;SDS011;2932;52.400;9.558;2022-07-10T01:07:05;3.50;;;0.80;;
5811;SDS011;2932;52.400;9.558;2022-07-10T01:09:31;4.00;;;0.70;;
5811;SDS011;2932;52.400;9.558;2022-07-10T01:11:58;3.73;;;0.77;;
5811;SDS011;2932;52.400;9.558;2022-07-10T01:14:25;3.27;;;0.80;;
5811;SDS011;2932;52.400;9.558;2022-07-10T01:16:52;1.83;;;0.60;;
5811;SDS011;2932;52.400;9.558;2022-07-10T01:19:18;1.77;;;0.80;;
5811;SDS011;2932;52.400;9.558;2022-07-10T01:21:44;2.73;;;0.63;;
5811;SDS011;2932;52.400;9.558;2022-07-10T01:24:09;4.17;;;1.03;;
5811;SDS011;2932;52.400;9.558;2022-07-10T01:26:36;3.27;;;1.00;;
5811;SDS011;2932;52.400;9.558;2022-07-10T01:29:05;4.33;;;0.70;;
5811;SDS011;2932;52.400;9.558;2022-07-10T01:31:32;4.27;;;0.93;;
5811;SDS011;2932;52.400;9.558;2022-07-10T01:33:59;3.47;;;0.83;;
5811;SDS011;2932;52.400;9.558;2022-07-10T01:36:25;4.87;;;0.70;;
5811;SDS011;2932;52.400;9.558;2022-07-10T01:38:53;4.10;;;1.10;;
5811;SDS011;2932;52.400;9.558;2022-07-10T01:41:20;1.40;;;0.53;;
5811;SDS011;2932;52.400;9.558;2022-07-10T01:43:45;3.47;;;0.67;;
5811;SDS011;2932;52.400;9.558;2022-07-10T01:46:12;4.27;;;0.97;;
5811;SDS011;2932;52.400;9.558;2022-07-10T01:48:38;3.03;;;1.20;;
5811;SDS011;2932;52.400;9.558;2022-07-10T01:51:07;2.97;;;0.73;;
5811;SDS011;2932;52.400;9.558;2022-07-10T01:53:33;3.50;;;0.60;;
5811;SDS011;2932;52.400;9.558;2022-07-10T01:56:03;3.13;;;0.70;;
5811;SDS011;2932;52.400;9.558;2022-07-10T01:58:30;3.13;;;0.80;;
5811;SDS011;2932;52.400;9.558;2022-07-10T02:00:56;2.77;;;0.60;;
5811;SDS011;2932;52.400;9.558;2022-07-10T02:03:21;4.47;;;1.10;;
5811;SDS011;2932;52.400;9.558;2022-07-10T02:06:05;5.07;;;0.70;;
5811;SDS011;2932;52.400;9.558;2022-07-10T02:08:31;4.30;;;0.80;;
5811;SDS011;2932;52.400;9.558;2022-07-10T02:10:56;2.57;;;0.63;;
5811;SDS011;2932;52.400;9.558;2022-07-10T02:13:22;2.73;;;0.70;;
5811;SDS011;2932;52.400;9.558;2022-07-10T02:15:49;3.20;;;1.00;;
5811;SDS011;2932;52.400;9.558;2022-07-10T02:18:15;4.47;;;0.70;;
5811;SDS011;2932;52.400;9.558;2022-07-10T02:20:40;5.77;;;1.10;;
5811;SDS011;2932;52.400;9.558;2022-07-10T02:23:06;4.50;;;0.93;;
5811;SDS011;2932;52.400;9.558;2022-07-10T02:25:32;4.67;;;0.80;;
5811;SDS011;2932;52.400;9.558;2022-07-10T02:27:58;4.10;;;0.87;;
5811;SDS011;2932;52.400;9.558;2022-07-10T02:30:24;3.73;;;0.90;;
5811;SDS011;2932;52.400;9.558;2022-07-10T02:32:49;4.90;;;0.70;;
5811;SDS011;2932;52.400;9.558;2022-07-10T02:35:14;3.07;;;0.70;;
5811;SDS011;2932;52.400;9.558;2022-07-10T02:37:40;4.40;;;1.27;;
5811;SDS011;2932;52.400;9.558;2022-07-10T02:40:05;3.30;;;0.97;;
5811;SDS011;2932;52.400;9.558;2022-07-10T02:42:31;6.03;;;1.13;;
5811;SDS011;2932;52.400;9.558;2022-07-10T02:44:57;3.53;;;0.97;;
5811;SDS011;2932;52.400;9.558;2022-07-10T02:47:22;3.63;;;0.70;;
5811;SDS011;2932;52.400;9.558;2022-07-10T02:49:47;4.27;;;0.80;;
5811;SDS011;2932;52.400;9.558;2022-07-10T02:52:13;4.37;;;0.70;;
5811;SDS011;2932;52.400;9.558;2022-07-10T02:54:38;6.13;;;1.10;;
5811;SDS011;2932;52.400;9.558;2022-07-10T02:57:04;7.53;;;1.13;;
5811;SDS011;2932;52.400;9.558;2022-07-10T02:59:30;4.93;;;1.10;;
5811;SDS011;2932;52.400;9.558;2022-07-10T03:01:55;4.63;;;0.97;;
5811;SDS011;2932;52.400;9.558;2022-07-10T03:04:21;5.03;;;1.00;;
5811;SDS011;2932;52.400;9.558;2022-07-10T03:06:46;4.27;;;1.20;;
5811;SDS011;2932;52.400;9.558;2022-07-10T03:09:12;4.77;;;1.00;;
5811;SDS011;2932;52.400;9.558;2022-07-10T03:11:37;3.17;;;0.70;;
5811;SDS011;2932;52.400;9.558;2022-07-10T03:14:02;5.57;;;1.00;;
5811;SDS011;2932;52.400;9.558;2022-07-10T03:16:31;3.60;;;1.13;;
5811;SDS011;2932;52.400;9.558;2022-07-10T03:18:57;3.00;;;0.80;;
5811;SDS011;2932;52.400;9.558;2022-07-10T03:21:22;4.97;;;1.07;;
5811;SDS011;2932;52.400;9.558;2022-07-10T03:23:48;3.07;;;0.80;;
5811;SDS011;2932;52.400;9.558;2022-07-10T03:26:13;3.17;;;0.80;;
5811;SDS011;2932;52.400;9.558;2022-07-10T03:28:39;3.00;;;0.90;;
5811;SDS011;2932;52.400;9.558;2022-07-10T03:31:04;4.00;;;1.40;;
5811;SDS011;2932;52.400;9.558;2022-07-10T03:33:29;3.23;;;1.07;;
5811;SDS011;2932;52.400;9.558;2022-07-10T03:35:55;3.47;;;0.70;;
5811;SDS011;2932;52.400;9.558;2022-07-10T03:38:20;5.33;;;1.00;;
5811;SDS011;2932;52.400;9.558;2022-07-10T03:40:46;4.33;;;0.90;;
5811;SDS011;2932;52.400;9.558;2022-07-10T03:43:13;5.40;;;1.30;;
5811;SDS011;2932;52.400;9.558;2022-07-10T03:45:39;4.93;;;0.87;;
5811;SDS011;2932;52.400;9.558;2022-07-10T03:48:04;5.13;;;1.40;;
5811;SDS011;2932;52.400;9.558;2022-07-10T03:50:30;8.17;;;1.17;;
5811;SDS011;2932;52.400;9.558;2022-07-10T03:52:55;7.50;;;1.00;;
5811;SDS011;2932;52.400;9.558;2022-07-10T03:55:20;4.27;;;1.03;;
5811;SDS011;2932;52.400;9.558;2022-07-10T03:57:46;4.33;;;0.90;;
5811;SDS011;2932;52.400;9.558;2022-07-10T04:00:22;6.03;;;1.07;;
5811;SDS011;2932;52.400;9.558;2022-07-10T04:02:59;5.23;;;1.00;;
5811;SDS011;2932;52.400;9.558;2022-07-10T04:05:29;5.40;;;1.13;;
5811;SDS011;2932;52.400;9.558;2022-07-10T04:07:55;4.43;;;0.90;;
5811;SDS011;2932;52.400;9.558;2022-07-10T04:10:22;3.40;;;0.93;;
5811;SDS011;2932;52.400;9.558;2022-07-10T04:12:48;4.33;;;0.77;;
5811;SDS011;2932;52.400;9.558;2022-07-10T04:15:13;5.97;;;1.40;;
5811;SDS011;2932;52.400;9.558;2022-07-10T04:17:39;5.90;;;0.80;;
5811;SDS011;2932;52.400;9.558;2022-07-10T04:20:04;4.00;;;0.80;;
5811;SDS011;2932;52.400;9.558;2022-07-10T04:22:30;4.80;;;0.77;;
5811;SDS011;2932;52.400;9.558;2022-07-10T04:24:56;7.20;;;1.03;;
5811;SDS011;2932;52.400;9.558;2022-07-10T04:27:21;3.93;;;0.97;;
5811;SDS011;2932;52.400;9.558;2022-07-10T04:29:47;4.87;;;0.90;;
5811;SDS011;2932;52.400;9.558;2022-07-10T04:32:13;3.00;;;0.70;;
5811;SDS011;2932;52.400;9.558;2022-07-10T04:34:40;3.70;;;0.87;;
5811;SDS011;2932;52.400;9.558;2022-07-10T04:37:05;4.17;;;0.70;;
5811;SDS011;2932;52.400;9.558;2022-07-10T04:39:32;2.57;;;0.80;;
5811;SDS011;2932;52.400;9.558;2022-07-10T04:42:02;3.17;;;0.83;;
5811;SDS011;2932;52.400;9.558;2022-07-10T04:44:28;2.97;;;0.80;;
5811;SDS011;2932;52.400;9.558;2022-07-10T04:46:54;3.20;;;0.90;;
5811;SDS011;2932;52.400;9.558;2022-07-10T04:49:19;6.03;;;1.00;;
5811;SDS011;2932;52.400;9.558;2022-07-10T04:51:44;3.00;;;0.80;;
5811;SDS011;2932;52.400;9.558;2022-07-10T04:54:10;4.90;;;0.80;;
5811;SDS011;2932;52.400;9.558;2022-07-10T04:56:35;7.13;;;0.93;;
5811;SDS011;2932;52.400;9.558;2022-07-10T04:59:01;2.53;;;1.20;;
5811;SDS011;2932;52.400;9.558;2022-07-10T05:01:27;7.20;;;1.07;;
5811;SDS011;2932;52.400;9.558;2022-07-10T05:03:52;6.03;;;0.83;;
5811;SDS011;2932;52.400;9.558;2022-07-10T05:06:18;5.83;;;1.00;;
5811;SDS011;2932;52.400;9.558;2022-07-10T05:08:43;8.10;;;1.40;;
5811;SDS011;2932;52.400;9.558;2022-07-10T05:11:09;4.17;;;0.93;;
5811;SDS011;2932;52.400;9.558;2022-07-10T05:13:34;4.33;;;0.90;;
5811;SDS011;2932;52.400;9.558;2022-07-10T05:16:00;4.67;;;0.80;;
5811;SDS011;2932;52.400;9.558;2022-07-10T05:18:25;5.17;;;0.90;;
5811;SDS011;2932;52.400;9.558;2022-07-10T05:20:51;5.67;;;0.87;;
5811;SDS011;2932;52.400;9.558;2022-07-10T05:23:16;4.43;;;1.40;;
5811;SDS011;2932;52.400;9.558;2022-07-10T05:25:42;6.30;;;1.00;;
5811;SDS011;2932;52.400;9.558;2022-07-10T05:28:07;5.80;;;1.10;;
5811;SDS011;2932;52.400;9.558;2022-07-10T05:30:33;7.97;;;1.43;;
5811;SDS011;2932;52.400;9.558;2022-07-10T05:32:59;3.43;;;1.00;;
5811;SDS011;2932;52.400;9.558;2022-07-10T05:35:25;3.63;;;1.10;;
5811;SDS011;2932;52.400;9.558;2022-07-10T05:37:51;4.00;;;1.00;;
5811;SDS011;2932;52.400;9.558;2022-07-10T05:40:17;4.27;;;1.10;;
5811;SDS011;2932;52.400;9.558;2022-07-10T05:42:43;6.53;;;0.93;;
5811;SDS011;2932;52.400;9.558;2022-07-10T05:45:09;5.87;;;0.97;;
5811;SDS011;2932;52.400;9.558;2022-07-10T05:47:35;6.27;;;1.53;;
5811;SDS011;2932;52.400;9.558;2022-07-10T05:50:01;6.73;;;1.20;;
5811;SDS011;2932;52.400;9.558;2022-07-10T05:52:26;6.93;;;1.17;;
5811;SDS011;2932;52.400;9.558;2022-07-10T05:54:52;5.93;;;1.00;;
5811;SDS011;2932;52.400;9.558;2022-07-10T05:57:18;7.63;;;1.10;;
5811;SDS011;2932;52.400;9.558;2022-07-10T05:59:43;5.30;;;1.27;;
5811;SDS011;2932;52.400;9.558;2022-07-10T06:02:09;4.17;;;0.93;;
5811;SDS011;2932;52.400;9.558;2022-07-10T06:04:34;5.90;;;1.10;;
5811;SDS011;2932;52.400;9.558;2022-07-10T06:07:00;2.37;;;0.70;;
5811;SDS011;2932;52.400;9.558;2022-07-10T06:09:25;6.67;;;1.20;;
5811;SDS011;2932;52.400;9.558;2022-07-10T06:11:51;5.53;;;1.00;;
5811;SDS011;2932;52.400;9.558;2022-07-10T06:14:16;3.03;;;1.10;;
5811;SDS011;2932;52.400;9.558;2022-07-10T06:16:41;2.67;;;0.80;;
5811;SDS011;2932;52.400;9.558;2022-07-10T06:19:07;2.80;;;0.93;;
5811;SDS011;2932;52.400;9.558;2022-07-10T06:21:32;3.30;;;0.80;;
5811;SDS011;2932;52.400;9.558;2022-07-10T06:23:58;5.30;;;1.07;;
5811;SDS011;2932;52.400;9.558;2022-07-10T06:26:24;7.53;;;1.20;;
5811;SDS011;2932;52.400;9.558;2022-07-10T06:28:49;1.87;;;0.80;;
5811;SDS011;2932;52.400;9.558;2022-07-10T06:31:15;3.33;;;1.00;;
5811;SDS011;2932;52.400;9.558;2022-07-10T06:33:40;5.43;;;1.07;;
5811;SDS011;2932;52.400;9.558;2022-07-10T06:36:06;4.73;;;1.40;;
5811;SDS011;2932;52.400;9.558;2022-07-10T06:38:32;4.13;;;1.00;;
5811;SDS011;2932;52.400;9.558;2022-07-10T06:40:57;3.67;;;1.03;;
5811;SDS011;2932;52.400;9.558;2022-07-10T06:43:22;5.83;;;1.10;;
5811;SDS011;2932;52.400;9.558;2022-07-10T06:45:48;8.03;;;1.20;;
5811;SDS011;2932;52.400;9.558;2022-07-10T06:48:13;4.90;;;1.07;;
5811;SDS011;2932;52.400;9.558;2022-07-10T06:50:39;4.87;;;1.17;;
5811;SDS011;2932;52.400;9.558;2022-07-10T06:53:05;5.57;;;1.40;;
5811;SDS011;2932;52.400;9.558;2022-07-10T06:55:31;5.87;;;1.73;;
5811;SDS011;2932;52.400;9.558;2022-07-10T06:57:57;3.03;;;1.00;;
5811;SDS011;2932;52.400;9.558;2022-07-10T07:00:23;3.67;;;1.10;;
5811;SDS011;2932;52.400;9.558;2022-07-10T07:02:49;4.60;;;1.37;;
5811;SDS011;2932;52.400;9.558;2022-07-10T07:05:14;8.48;;;1.50;;
5811;SDS011;2932;52.400;9.558;2022-07-10T07:07:40;4.30;;;1.00;;
5811;SDS011;2932;52.400;9.558;2022-07-10T07:10:06;3.28;;;0.85;;
5811;SDS011;2932;52.400;9.558;2022-07-10T07:12:33;3.65;;;1.20;;
5811;SDS011;2932;52.400;9.558;2022-07-10T07:14:58;5.13;;;1.23;;
5811;SDS011;2932;52.400;9.558;2022-07-10T07:17:24;4.63;;;0.80;;
5811;SDS011;2932;52.400;9.558;2022-07-10T07:19:59;5.97;;;1.52;;
5811;SDS011;2932;52.400;9.558;2022-07-10T07:22:45;3.20;;;1.10;;
5811;SDS011;2932;52.400;9.558;2022-07-10T07:25:29;4.93;;;1.02;;
5811;SDS011;2932;52.400;9.558;2022-07-10T07:27:55;4.57;;;1.08;;
5811;SDS011;2932;52.400;9.558;2022-07-10T07:30:20;3.63;;;1.20;;
5811;SDS011;2932;52.400;9.558;2022-07-10T07:32:46;4.78;;;1.30;;
5811;SDS011;2932;52.400;9.558;2022-07-10T07:35:13;5.63;;;2.70;;
5811;SDS011;2932;52.400;9.558;2022-07-10T07:37:41;7.03;;;2.00;;
5811;SDS011;2932;52.400;9.558;2022-07-10T07:40:09;5.05;;;1.42;;
5811;SDS011;2932;52.400;9.558;2022-07-10T07:42:35;7.68;;;1.98;;
5811;SDS011;2932;52.400;9.558;2022-07-10T07:45:01;5.18;;;1.10;;
5811;SDS011;2932;52.400;9.558;2022-07-10T07:47:28;4.50;;;1.15;;
5811;SDS011;2932;52.400;9.558;2022-07-10T07:49:54;5.38;;;1.60;;
5811;SDS011;2932;52.400;9.558;2022-07-10T07:52:20;5.72;;;1.20;;
5811;SDS011;2932;52.400;9.558;2022-07-10T07:54:45;8.70;;;1.70;;
5811;SDS011;2932;52.400;9.558;2022-07-10T07:57:10;4.30;;;1.10;;
5811;SDS011;2932;52.400;9.558;2022-07-10T07:59:36;4.88;;;1.15;;
5811;SDS011;2932;52.400;9.558;2022-07-10T08:02:01;5.65;;;1.40;;
5811;SDS011;2932;52.400;9.558;2022-07-10T08:04:27;5.10;;;1.55;;
5811;SDS011;2932;52.400;9.558;2022-07-10T08:06:52;2.78;;;0.93;;
5811;SDS011;2932;52.400;9.558;2022-07-10T08:09:19;2.55;;;1.05;;
5811;SDS011;2932;52.400;9.558;2022-07-10T08:11:44;5.53;;;0.98;;
5811;SDS011;2932;52.400;9.558;2022-07-10T08:14:10;4.10;;;1.15;;
5811;SDS011;2932;52.400;9.558;2022-07-10T08:16:36;6.63;;;1.10;;
5811;SDS011;2932;52.400;9.558;2022-07-10T08:19:01;5.55;;;1.20;;
5811;SDS011;2932;52.400;9.558;2022-07-10T08:21:26;7.32;;;1.70;;
5811;SDS011;2932;52.400;9.558;2022-07-10T08:23:52;5.20;;;1.48;;
5811;SDS011;2932;52.400;9.558;2022-07-10T08:26:18;6.45;;;1.70;;
5811;SDS011;2932;52.400;9.558;2022-07-10T08:28:44;3.80;;;1.30;;
5811;SDS011;2932;52.400;9.558;2022-07-10T08:31:09;4.00;;;1.20;;
5811;SDS011;2932;52.400;9.558;2022-07-10T08:33:34;4.88;;;1.00;;
5811;SDS011;2932;52.400;9.558;2022-07-10T08:36:00;7.03;;;1.40;;
5811;SDS011;2932;52.400;9.558;2022-07-10T08:38:25;3.05;;;1.02;;
5811;SDS011;2932;52.400;9.558;2022-07-10T08:40:51;7.53;;;1.65;;
5811;SDS011;2932;52.400;9.558;2022-07-10T08:43:21;4.38;;;1.02;;
5811;SDS011;2932;52.400;9.558;2022-07-10T08:45:46;5.20;;;1.23;;
5811;SDS011;2932;52.400;9.558;2022-07-10T08:48:14;2.47;;;1.08;;
5811;SDS011;2932;52.400;9.558;2022-07-10T08:50:44;4.78;;;1.10;;
5811;SDS011;2932;52.400;9.558;2022-07-10T08:53:13;4.72;;;1.00;;
5811;SDS011;2932;52.400;9.558;2022-07-10T08:55:45;4.85;;;1.23;;
5811;SDS011;2932;52.400;9.558;2022-07-10T08:58:12;5.20;;;1.30;;
5811;SDS011;2932;52.400;9.558;2022-07-10T09:00:38;3.40;;;1.00;;
5811;SDS011;2932;52.400;9.558;2022-07-10T09:03:03;5.13;;;1.30;;
5811;SDS011;2932;52.400;9.558;2022-07-10T09:05:28;6.75;;;1.15;;
5811;SDS011;2932;52.400;9.558;2022-07-10T09:07:54;6.50;;;1.23;;
5811;SDS011;2932;52.400;9.558;2022-07-10T09:10:20;2.45;;;0.70;;
5811;SDS011;2932;52.400;9.558;2022-07-10T09:12:55;5.38;;;1.10;;
5811;SDS011;2932;52.400;9.558;2022-07-10T09:15:23;3.45;;;1.17;;
5811;SDS011;2932;52.400;9.558;2022-07-10T09:20:30;4.53;;;0.98;;
5811;SDS011;2932;52.400;9.558;2022-07-10T09:23:22;5.78;;;1.10;;
5811;SDS011;2932;52.400;9.558;2022-07-10T09:25:49;4.93;;;1.17;;
5811;SDS011;2932;52.400;9.558;2022-07-10T09:28:16;3.95;;;1.10;;
5811;SDS011;2932;52.400;9.558;2022-07-10T09:30:44;6.15;;;1.20;;
5811;SDS011;2932;52.400;9.558;2022-07-10T09:36:07;4.63;;;1.60;;
5811;SDS011;2932;52.400;9.558;2022-07-10T09:41:28;5.68;;;1.20;;
5811;SDS011;2932;52.400;9.558;2022-07-10T09:46:31;4.90;;;1.05;;
5811;SDS011;2932;52.400;9.558;2022-07-10T09:49:10;6.22;;;1.38;;
5811;SDS011;2932;52.400;9.558;2022-07-10T09:51:38;2.42;;;1.05;;
5811;SDS011;2932;52.400;9.558;2022-07-10T09:54:05;4.50;;;1.35;;
5811;SDS011;2932;52.400;9.558;2022-07-10T09:56:34;5.30;;;1.20;;
5811;SDS011;2932;52.400;9.558;2022-07-10T09:59:14;4.82;;;1.38;;
5811;SDS011;2932;52.400;9.558;2022-07-10T10:01:42;3.83;;;0.93;;
5811;SDS011;2932;52.400;9.558;2022-07-10T10:04:10;5.38;;;1.73;;
5811;SDS011;2932;52.400;9.558;2022-07-10T10:06:36;5.88;;;1.35;;
5811;SDS011;2932;52.400;9.558;2022-07-10T10:11:36;4.90;;;0.93;;
5811;SDS011;2932;52.400;9.558;2022-07-10T10:14:02;3.03;;;0.90;;
5811;SDS011;2932;52.400;9.558;2022-07-10T10:16:31;5.03;;;1.10;;
5811;SDS011;2932;52.400;9.558;2022-07-10T10:18:58;3.88;;;1.48;;
5811;SDS011;2932;52.400;9.558;2022-07-10T10:21:42;3.72;;;1.45;;
5811;SDS011;2932;52.400;9.558;2022-07-10T10:24:09;5.28;;;1.20;;
5811;SDS011;2932;52.400;9.558;2022-07-10T10:26:35;3.30;;;1.15;;
5811;SDS011;2932;52.400;9.558;2022-07-10T10:29:01;4.13;;;1.30;;
5811;SDS011;2932;52.400;9.558;2022-07-10T10:31:29;3.53;;;1.10;;
5811;SDS011;2932;52.400;9.558;2022-07-10T10:33:55;3.05;;;1.17;;
5811;SDS011;2932;52.400;9.558;2022-07-10T10:39:17;9.27;;;3.00;;
5811;SDS011;2932;52.400;9.558;2022-07-10T10:41:52;12.15;;;4.28;;
5811;SDS011;2932;52.400;9.558;2022-07-10T10:44:19;7.45;;;3.72;;
5811;SDS011;2932;52.400;9.558;2022-07-10T10:49:22;4.38;;;1.60;;
5811;SDS011;2932;52.400;9.558;2022-07-10T10:54:28;5.10;;;1.17;;
5811;SDS011;2932;52.400;9.558;2022-07-10T11:02:31;3.97;;;1.20;;
5811;SDS011;2932;52.400;9.558;2022-07-10T11:10:39;2.63;;;1.00;;
5811;SDS011;2932;52.400;9.558;2022-07-10T11:15:30;3.45;;;1.13;;
5811;SDS011;2932;52.400;9.558;2022-07-10T11:18:04;7.68;;;2.25;;
5811;SDS011;2932;52.400;9.558;2022-07-10T11:20:33;12.40;;;4.07;;
5811;SDS011;2932;52.400;9.558;2022-07-10T11:26:04;7.20;;;2.88;;
5811;SDS011;2932;52.400;9.558;2022-07-10T11:28:45;3.13;;;1.13;;
5811;SDS011;2932;52.400;9.558;2022-07-10T11:31:27;4.30;;;1.40;;
5811;SDS011;2932;52.400;9.558;2022-07-10T11:33:54;2.80;;;0.82;;
5811;SDS011;2932;52.400;9.558;2022-07-10T11:36:21;3.45;;;0.90;;
5811;SDS011;2932;52.400;9.558;2022-07-10T11:39:01;4.10;;;1.20;;
5811;SDS011;2932;52.400;9.558;2022-07-10T11:41:29;7.30;;;1.63;;
5811;SDS011;2932;52.400;9.558;2022-07-10T11:43:55;3.30;;;1.00;;
5811;SDS011;2932;52.400;9.558;2022-07-10T11:46:26;4.18;;;0.90;;
5811;SDS011;2932;52.400;9.558;2022-07-10T11:48:53;4.72;;;1.08;;
5811;SDS011;2932;52.400;9.558;2022-07-10T11:56:28;3.72;;;0.80;;
5811;SDS011;2932;52.400;9.558;2022-07-10T11:58:59;5.05;;;1.40;;
5811;SDS011;2932;52.400;9.558;2022-07-10T12:01:26;5.88;;;1.10;;
5811;SDS011;2932;52.400;9.558;2022-07-10T12:04:03;7.95;;;1.23;;
5811;SDS011;2932;52.400;9.558;2022-07-10T12:06:31;2.63;;;0.90;;
5811;SDS011;2932;52.400;9.558;2022-07-10T12:09:04;6.35;;;1.13;;
5811;SDS011;2932;52.400;9.558;2022-07-10T12:11:31;3.67;;;0.82;;
5811;SDS011;2932;52.400;9.558;2022-07-10T12:16:42;4.13;;;0.90;;
5811;SDS011;2932;52.400;9.558;2022-07-10T12:19:08;6.32;;;1.15;;
5811;SDS011;2932;52.400;9.558;2022-07-10T12:21:38;3.95;;;0.98;;
5811;SDS011;2932;52.400;9.558;2022-07-10T12:24:05;8.13;;;1.00;;
5811;SDS011;2932;52.400;9.558;2022-07-10T12:26:33;6.45;;;1.20;;
5811;SDS011;2932;52.400;9.558;2022-07-10T12:29:25;3.17;;;1.02;;
5811;SDS011;2932;52.400;9.558;2022-07-10T12:31:54;1.77;;;1.00;;
5811;SDS011;2932;52.400;9.558;2022-07-10T12:34:34;1.73;;;0.70;;
5811;SDS011;2932;52.400;9.558;2022-07-10T12:37:11;3.47;;;0.70;;
5811;SDS011;2932;52.400;9.558;2022-07-10T12:39:51;4.15;;;1.23;;
5811;SDS011;2932;52.400;9.558;2022-07-10T12:42:24;4.72;;;1.30;;
5811;SDS011;2932;52.400;9.558;2022-07-10T12:44:50;4.13;;;1.08;;
5811;SDS011;2932;52.400;9.558;2022-07-10T12:47:16;4.10;;;1.00;;
5811;SDS011;2932;52.400;9.558;2022-07-10T12:52:27;6.63;;;1.17;;
5811;SDS011;2932;52.400;9.558;2022-07-10T12:57:57;3.30;;;1.05;;
5811;SDS011;2932;52.400;9.558;2022-07-10T13:00:28;1.75;;;1.00;;
5811;SDS011;2932;52.400;9.558;2022-07-10T13:05:38;3.92;;;1.13;;
5811;SDS011;2932;52.400;9.558;2022-07-10T13:10:45;3.88;;;1.55;;
5811;SDS011;2932;52.400;9.558;2022-07-10T13:13:13;4.38;;;1.23;;
5811;SDS011;2932;52.400;9.558;2022-07-10T13:15:39;4.57;;;1.42;;
5811;SDS011;2932;52.400;9.558;2022-07-10T13:18:16;3.85;;;1.33;;
5811;SDS011;2932;52.400;9.558;2022-07-10T13:20:46;4.88;;;1.13;;
5811;SDS011;2932;52.400;9.558;2022-07-10T13:23:12;5.28;;;1.98;;
5811;SDS011;2932;52.400;9.558;2022-07-10T13:25:37;5.53;;;1.55;;
5811;SDS011;2932;52.400;9.558;2022-07-10T13:28:06;5.50;;;1.15;;
5811;SDS011;2932;52.400;9.558;2022-07-10T13:30:32;5.20;;;1.20;;
5811;SDS011;2932;52.400;9.558;2022-07-10T13:32:58;3.47;;;1.27;;
5811;SDS011;2932;52.400;9.558;2022-07-10T13:35:24;3.40;;;1.20;;
5811;SDS011;2932;52.400;9.558;2022-07-10T13:37:52;3.35;;;1.02;;
5811;SDS011;2932;52.400;9.558;2022-07-10T13:40:17;3.17;;;1.08;;
5811;SDS011;2932;52.400;9.558;2022-07-10T13:42:43;2.83;;;0.80;;
5811;SDS011;2932;52.400;9.558;2022-07-10T13:45:09;5.05;;;1.30;;
5811;SDS011;2932;52.400;9.558;2022-07-10T13:47:35;2.83;;;0.75;;
5811;SDS011;2932;52.400;9.558;2022-07-10T13:50:00;2.85;;;1.02;;
5811;SDS011;2932;52.400;9.558;2022-07-10T13:52:25;5.03;;;1.25;;
5811;SDS011;2932;52.400;9.558;2022-07-10T13:54:51;3.60;;;1.27;;
5811;SDS011;2932;52.400;9.558;2022-07-10T13:57:16;4.88;;;1.42;;
5811;SDS011;2932;52.400;9.558;2022-07-10T13:59:42;3.65;;;1.33;;
5811;SDS011;2932;52.400;9.558;2022-07-10T14:02:07;4.25;;;1.00;;
5811;SDS011;2932;52.400;9.558;2022-07-10T14:04:33;3.25;;;0.95;;
5811;SDS011;2932;52.400;9.558;2022-07-10T14:06:58;6.63;;;1.02;;
5811;SDS011;2932;52.400;9.558;2022-07-10T14:09:23;2.38;;;0.80;;
5811;SDS011;2932;52.400;9.558;2022-07-10T14:11:50;4.03;;;0.77;;
5811;SDS011;2932;52.400;9.558;2022-07-10T14:14:15;2.90;;;1.02;;
5811;SDS011;2932;52.400;9.558;2022-07-10T14:16:41;3.38;;;1.00;;
5811;SDS011;2932;52.400;9.558;2022-07-10T14:19:08;3.92;;;1.58;;
5811;SDS011;2932;52.400;9.558;2022-07-10T14:21:33;2.00;;;0.98;;
5811;SDS011;2932;52.400;9.558;2022-07-10T14:23:59;2.22;;;0.73;;
5811;SDS011;2932;52.400;9.558;2022-07-10T14:26:26;3.53;;;0.73;;
5811;SDS011;2932;52.400;9.558;2022-07-10T14:28:52;3.08;;;0.73;;
5811;SDS011;2932;52.400;9.558;2022-07-10T14:31:17;2.20;;;0.70;;
5811;SDS011;2932;52.400;9.558;2022-07-10T14:33:43;1.55;;;0.70;;
5811;SDS011;2932;52.400;9.558;2022-07-10T14:36:08;3.13;;;0.88;;
5811;SDS011;2932;52.400;9.558;2022-07-10T14:38:34;2.63;;;0.70;;
5811;SDS011;2932;52.400;9.558;2022-07-10T14:41:00;1.20;;;0.60;;
5811;SDS011;2932;52.400;9.558;2022-07-10T14:43:26;1.25;;;0.52;;
5811;SDS011;2932;52.400;9.558;2022-07-10T14:45:52;1.48;;;0.50;;
5811;SDS011;2932;52.400;9.558;2022-07-10T14:48:18;3.38;;;0.70;;
5811;SDS011;2932;52.400;9.558;2022-07-10T14:50:44;2.47;;;0.75;;
5811;SDS011;2932;52.400;9.558;2022-07-10T14:53:10;2.95;;;0.80;;
5811;SDS011;2932;52.400;9.558;2022-07-10T14:55:36;2.75;;;0.80;;
5811;SDS011;2932;52.400;9.558;2022-07-10T14:58:02;4.65;;;0.80;;
5811;SDS011;2932;52.400;9.558;2022-07-10T15:00:28;2.60;;;0.73;;
5811;SDS011;2932;52.400;9.558;2022-07-10T15:02:53;1.13;;;0.40;;
5811;SDS011;2932;52.400;9.558;2022-07-10T15:05:18;3.22;;;1.00;;
5811;SDS011;2932;52.400;9.558;2022-07-10T15:07:44;3.05;;;1.00;;
5811;SDS011;2932;52.400;9.558;2022-07-10T15:10:09;3.38;;;0.80;;
5811;SDS011;2932;52.400;9.558;2022-07-10T15:12:35;3.90;;;0.70;;
5811;SDS011;2932;52.400;9.558;2022-07-10T15:15:02;1.02;;;0.30;;
5811;SDS011;2932;52.400;9.558;2022-07-10T15:17:28;1.27;;;0.55;;
5811;SDS011;2932;52.400;9.558;2022-07-10T15:19:54;1.70;;;0.68;;
5811;SDS011;2932;52.400;9.558;2022-07-10T15:22:19;1.55;;;0.70;;
5811;SDS011;2932;52.400;9.558;2022-07-10T15:24:45;2.13;;;0.60;;
5811;SDS011;2932;52.400;9.558;2022-07-10T15:27:14;1.48;;;0.57;;
5811;SDS011;2932;52.400;9.558;2022-07-10T15:29:39;1.45;;;0.80;;
5811;SDS011;2932;52.400;9.558;2022-07-10T15:32:05;2.72;;;1.50;;
5811;SDS011;2932;52.400;9.558;2022-07-10T15:34:30;7.38;;;2.47;;
5811;SDS011;2932;52.400;9.558;2022-07-10T15:36:56;8.13;;;3.30;;
5811;SDS011;2932;52.400;9.558;2022-07-10T15:39:22;8.00;;;3.63;;
5811;SDS011;2932;52.400;9.558;2022-07-10T15:41:49;9.75;;;4.70;;
5811;SDS011;2932;52.400;9.558;2022-07-10T15:44:14;8.82;;;4.63;;
5811;SDS011;2932;52.400;9.558;2022-07-10T15:46:39;13.20;;;4.60;;
5811;SDS011;2932;52.400;9.558;2022-07-10T15:49:06;14.75;;;6.32;;
5811;SDS011;2932;52.400;9.558;2022-07-10T15:51:32;9.98;;;4.57;;
5811;SDS011;2932;52.400;9.558;2022-07-10T15:53:57;12.30;;;4.65;;
5811;SDS011;2932;52.400;9.558;2022-07-10T15:56:23;6.68;;;3.50;;
5811;SDS011;2932;52.400;9.558;2022-07-10T15:58:48;7.50;;;3.60;;
5811;SDS011;2932;52.400;9.558;2022-07-10T16:01:14;4.75;;;2.30;;
5811;SDS011;2932;52.400;9.558;2022-07-10T16:03:41;4.70;;;2.30;;
5811;SDS011;2932;52.400;9.558;2022-07-10T16:06:09;5.45;;;2.53;;
5811;SDS011;2932;52.400;9.558;2022-07-10T16:08:35;5.13;;;2.00;;
5811;SDS011;2932;52.400;9.558;2022-07-10T16:11:01;9.93;;;3.80;;